Historique des mesures à Cassis (13260), France
Quotidien Résumé Fevrier 21, 2018 Unités:  Métrique/US    US   Métrique
« Précédent (Jour)
Suivant (Jour) »
Quotidien Hebdomadaire Mensuel Annuel Période au choix
  Maximum: Minimum: Moyenne:
Température: 32 °F /  TemperatureC °C 39 °F /  3.9 °C 43.2 °F /  6.2 °C
Point de rosée: 32 °F /  DewpointC °C 25.3 °F /  -3.7 °C 30.7 °F /  -0.7 °C
Humidité: Humidity % 50 % 59 %
Vitesse du vent: WindSpeedKMH mph /  0 km/h - 5.5 mph /  8.9 km/h
Rafales: WindSpeedGustKMH mph /  0 km/h - -
Vent:- - West
Pression: 0 in /  PressurehPa hPa 29.6 in /  1001.9 hPa -
Précipitations: 167.64 in /  6.6 mm    
Historical Graphs
 
 
Mesures pour : Fevrier 21, 2018
Heure Temperature Point de rosée Pression Vent Vitesse du vent Rafales Humidité Pluie (par heure) Conditions
32 °F /  TemperatureC °C 32 °F /  DewpointC °C 0 in /  PressurehPa hPa Calm     Humidity % 0 in /  HourlyPrecipMM mm SoftwareType W/m2
00:12 43.7 °F /  6.5 °C 27.1 °F /  -2.7 °C 29.6 in /  1003.9 hPa Calm     52 % 0 in /  0.0 mm open2300-1.11 W/m2
01:12 42.6 °F /  5.9 °C 25.3 °F /  -3.7 °C 29.6 in /  1003.6 hPa North 4.0 mph /  6.4 km/h 5.0 mph /  8 km/h 50 % 0 in /  0.0 mm open2300-1.11 W/m2
02:12 43.5 °F /  6.4 °C 26.2 °F /  -3.2 °C 29.6 in /  1003.6 hPa NNE 3.2 mph /  5.1 km/h 4.3 mph /  6.9 km/h 50 % 0 in /  0.0 mm open2300-1.11 W/m2
03:12 43.5 °F /  6.4 °C 26.6 °F /  -3.0 °C 29.6 in /  1002.9 hPa Calm   2.9 mph /  4.7 km/h 51 % 0 in /  0.0 mm open2300-1.11 W/m2
04:12 42.1 °F /  5.6 °C 26.1 °F /  -3.3 °C 29.6 in /  1001.9 hPa NNW 10.5 mph /  16.9 km/h 11.6 mph /  18.7 km/h 53 % 0 in /  0.0 mm open2300-1.11 W/m2
05:12 41.5 °F /  5.3 °C 26.1 °F /  -3.3 °C 29.6 in /  1001.9 hPa WNW 2.1 mph /  3.4 km/h 2.1 mph /  3.4 km/h 54 % 0 in /  0.0 mm open2300-1.11 W/m2
06:12 42.4 °F /  5.8 °C 27.3 °F /  -2.6 °C 29.6 in /  1001.9 hPa WNW 2.6 mph /  4.2 km/h 2.6 mph /  4.2 km/h 55 % 0 in /  0.0 mm open2300-1.11 W/m2
07:12 43 °F /  6.1 °C 32.4 °F /  0.2 °C 29.6 in /  1002.3 hPa Calm     66 % 0 in /  0.0 mm open2300-1.11 W/m2
08:12 39.4 °F /  4.1 °C 32.4 °F /  0.2 °C 29.6 in /  1002.6 hPa North 2.9 mph /  4.7 km/h 2.9 mph /  4.7 km/h 76 % 50.8 in /  2.0 mm open2300-1.11 W/m2
09:12 39 °F /  3.9 °C 33.1 °F /  0.6 °C 29.6 in /  1003.3 hPa Calm   3.2 mph /  5.1 km/h 79 % 63.5 in /  2.5 mm open2300-1.11 W/m2
10:12 40.3 °F /  4.6 °C 34.5 °F /  1.4 °C 29.6 in /  1003.6 hPa NW 4.0 mph /  6.4 km/h 7.2 mph /  11.6 km/h 80 % 50.8 in /  2.0 mm open2300-1.11 W/m2
11:12 41.4 °F /  5.2 °C 35.6 °F /  2.0 °C 29.6 in /  1003.9 hPa NNW 7.6 mph /  12.2 km/h 7.6 mph /  12.2 km/h 80 % 0 in /  0.0 mm open2300-1.11 W/m2
12:12 44.8 °F /  7.1 °C 37.9 °F /  3.3 °C 29.6 in /  1003.9 hPa West 14.0 mph /  22.5 km/h 14.0 mph /  22.5 km/h 77 % 0 in /  0.0 mm open2300-1.11 W/m2
13:12 46.4 °F /  8.0 °C 38.1 °F /  3.4 °C 29.6 in /  1003.6 hPa NW 9.7 mph /  15.6 km/h 23.0 mph /  37 km/h 73 % 0 in /  0.0 mm open2300-1.11 W/m2
14:12 48 °F /  8.9 °C 37.2 °F /  2.9 °C 29.6 in /  1002.9 hPa WNW 23.0 mph /  37 km/h 23.0 mph /  37 km/h 66 % 0 in /  0.0 mm open2300-1.11 W/m2
15:12 48.7 °F /  9.3 °C 34.2 °F /  1.2 °C 29.6 in /  1002.6 hPa West 10.1 mph /  16.3 km/h 21.6 mph /  34.8 km/h 57 % 0 in /  0.0 mm open2300-1.11 W/m2
16:12 49.6 °F /  9.8 °C 33.3 °F /  0.7 °C 29.6 in /  1002.6 hPa NNW 7.2 mph /  11.6 km/h 12.2 mph /  19.6 km/h 53 % 0 in /  0.0 mm open2300-1.11 W/m2
17:12 49.6 °F /  9.8 °C 32.7 °F /  0.4 °C 29.6 in /  1002.3 hPa NW 3.5 mph /  5.6 km/h 6.1 mph /  9.8 km/h 52 % 0 in /  0.0 mm open2300-1.11 W/m2
18:12 46.8 °F /  8.2 °C 30.9 °F /  -0.6 °C 29.6 in /  1002.6 hPa Calm   6.4 mph /  10.3 km/h 54 % 0 in /  0.0 mm open2300-1.11 W/m2
19:12 44.1 °F /  6.7 °C 28.9 °F /  -1.7 °C 29.6 in /  1002.6 hPa NNW 3.2 mph /  5.1 km/h 6.4 mph /  10.3 km/h 55 % 0 in /  0.0 mm open2300-1.11 W/m2
20:12 42.1 °F /  5.6 °C 28.2 °F /  -2.1 °C 29.6 in /  1002.3 hPa West 7.9 mph /  12.7 km/h 12.6 mph /  20.3 km/h 58 % 0 in /  0.0 mm open2300-1.11 W/m2
21:12 41.5 °F /  5.3 °C 27.9 °F /  -2.3 °C 29.6 in /  1002.6 hPa WNW 10.8 mph /  17.4 km/h 10.8 mph /  17.4 km/h 58 % 0 in /  0.0 mm open2300-1.11 W/m2
22:12 40.6 °F /  4.8 °C 28.2 °F /  -2.1 °C 29.6 in /  1002.3 hPa NW 7.2 mph /  11.6 km/h 7.6 mph /  12.2 km/h 61 % 0 in /  0.0 mm open2300-1.11 W/m2
23:12 40.5 °F /  4.7 °C 28 °F /  -2.2 °C 29.6 in /  1001.9 hPa NNW 5.0 mph /  8 km/h 6.1 mph /  9.8 km/h 61 % 0 in /  0.0 mm open2300-1.11 W/m2
Observations météo à CASSIS
WU-History script by Weather Underground - 1 mb